Historyczne dane pomiarowe

Dodano dane terminowe – wersja testowa.

Dane z okresu 1951-2019

Wersja bazy: 1.34 [2019-03-16, lista zmian], aktualizacja planowana na 2019-04-15

Dane meteo z obszaru Polski uzyskane na podstawie danych udostępnionych przez Instytut Meteorologii i Gospodarki Wodnej – Państwowy Instytut Badawczy.

 

Wybierz Datę:    

       

TemperaturaWilgotnośćWiatrCiśnienieOpadyŚniegCzas trwania zjawisk
 Stacja t tx tn tng RH VA  wxwx mslp ppp RRR   cm mm wxwxwxwxwxwxwx
1956-10-11 5.5 8.9 -2.9 -4.5 74.5- 7.7 4.0---- 0.0------------
1956-10-12 8.2 11.2 4.3 3.5 82.3- 8.0 4.3---- 0.0------------
1956-10-13 8.5 9.4 3.7 2.4 84.8- 8.0 5.0---- 0.6------------
1956-10-14 6.9 9.4 4.5 5.8 77.3- 6.0 6.3---- 1.4------------
1956-10-15 5.3 10.5 0.1 -1.5 81.0- 4.3 3.7---- 0.0------------
1956-10-16 2.3 8.5 -0.6 -3.2 90.5- 4.3 1.7---- 0.0------------
1956-10-17 0.9 10.2 -4.4 -5.8 88.8- 0.0 0.7---- 0.0------------
1956-10-18 6.8 12.6 -3.7 -5.2 78.0- 7.3 1.3---- 0.0------------
1956-10-19 9.4 12.2 7.0 6.0 86.5- 8.0 4.3---- 0.2------------
1956-10-20 9.0 10.0 7.9 7.5 98.5- 8.0 2.7---- 0.9------------
1956-10-21 10.8 14.0 7.7 6.0 94.3- 7.0 1.7---- 0.0------------
1956-10-22 10.5 14.0 8.3 7.0 92.8- 5.3 3.3---- 0.0------------
1956-10-23 9.2 11.4 7.2 5.6 93.5- 8.0 2.7---- 0.0------------
1956-10-24 8.6 14.4 4.7 3.4 89.8- 5.3 2.0---- 0.0------------
1956-10-25 7.3 15.5 0.9 -0.5 89.3- 0.0 2.0---- 0.0------------
1956-10-26 8.0 15.8 1.5 -1.0 87.3- 0.0 2.3---- 0.0------------
1956-10-27 7.3 10.6 2.3 0.6 95.5- 8.0 3.7---- 0.0------------
1956-10-28 9.8 12.0 7.5 6.5 94.8- 8.0 2.3---- 2.2------------
1956-10-29 4.7 10.8 0.6 -1.0 83.5- 3.3 1.7---- 0.4------------
1956-10-30 0.4 4.9 -2.6 1.0100.0- 8.0 4.0---- 0.1------------
1956-10-31 -6.4 -1.7 -8.9 -6.0 93.0- 4.0 3.0---- 0.0------------
1956-11-01 -2.1 2.9 -9.5-11.5 95.5- 5.3 4.3---- 0.0------------
1956-11-02 -2.4 0.3 -4.6 -4.5 95.5- 5.3 1.7---- 1.0------------
1956-11-03 -1.9 0.3 -6.3 -8.0 98.8- 7.3 2.3---- 0.2------------
1956-11-04 -2.4 2.4 -5.6 -5.5 92.3- 3.0 1.0---- 0.0------------
1956-11-05 -0.5 1.5 -7.5 -9.4 89.8- 5.3 4.0---- 4.0------------
1956-11-06 -1.4 1.5 -3.1 -3.0 93.8- 4.7 3.3---- 2.2------------
1956-11-07 -3.0 0.5 -6.1 -5.6 86.0- 5.0 4.7---- 0.2-- 3---------
1956-11-08 -7.2 -3.6 -9.4-11.0 84.3- 2.3 3.3---- 0.0-- 3---------
1956-11-09 -6.7 -4.1-12.1-14.0 83.8- 5.7 1.7---- 0.0-- 2---------
1027.9 ms

 

Źródłem pochodzenia danych jest Instytut Meteorologii i Gospodarki Wodnej – Państwowy Instytut Badawczy. Dane Instytutu Meteorologii i Gospodarki Wodnej – Państwowego Instytutu Badawczego zostały przetworzone.

Dane źródłowe można odnaleźć na stronie https://dane.imgw.pl